Jeffco Stadium (Lakewood), Colorado
Current Conditions -  °F | °C
As of 9:54 AM on Wednesday 26 Nov 2014 (Local Time) from KBJC Reporting Station
Scattered Clouds Scattered Clouds  
Wind Chill: 24°   Ceiling: Unl
Heat Index: 32°   Visibility: 20mi
Dew Point: 25°   Wind: 10mph
Humidity: 75%   Direction: 110°ESE
Pressure: 30.18"   Gusts: NA
Location:  39.72179°N, 105.1096°W
Report Text: KBJC 261654Z 11009KT 20SM SCT080 00/M04 A3018
Loading
Personal Weather Stations






























Interactive Weather Map New forecast layout! Learn more

10-Day Weather Forecast

Advertisements
Track Severe Weather on mobile